Lwrnce, Kansas
Current Conditions -  °F | °C
As of 9:52 PM on Wednesday 28 Jan 2015 (Local Time) from KLWC Reporting Station
Clear Clear  
Wind Chill: 51°   Ceiling: Unl
Heat Index: 51°   Visibility: 10mi
Dew Point: 34°   Wind: 9mph
Humidity: 52%   Direction: 300°WNW
Pressure: 29.81"   Gusts: NA
Location:  38.9329°N, 95.2935°W
Report Text: KLWC 290352Z AUTO 30008KT 10SM CLR 11/01 A2981 RMK AO2 SLP094 T01060011
Loading
Personal Weather Stations






























Interactive Weather Map New forecast layout! Learn more

10-Day Weather Forecast

Advertisements
Track Severe Weather on mobile